sensor_id;sensor_type;location;lat;lon;timestamp;pressure;altitude;pressure_sealevel;temperature;humidity
46614;BME280;32338;50.430;6.806;2023-07-31T00:01:46;67057.09;;;15.02;100.00
46614;BME280;32338;50.430;6.806;2023-07-31T00:04:12;67051.44;;;14.97;100.00
46614;BME280;32338;50.430;6.806;2023-07-31T00:06:39;67042.97;;;14.89;100.00
46614;BME280;32338;50.430;6.806;2023-07-31T00:09:05;67037.88;;;14.84;100.00
46614;BME280;32338;50.430;6.806;2023-07-31T00:11:33;67022.59;;;14.70;100.00
46614;BME280;32338;50.430;6.806;2023-07-31T00:14:00;67010.72;;;14.59;100.00
46614;BME280;32338;50.430;6.806;2023-07-31T00:16:26;67013.75;;;14.57;100.00
46614;BME280;32338;50.430;6.806;2023-07-31T00:18:53;67008.81;;;14.55;100.00
46614;BME280;32338;50.430;6.806;2023-07-31T00:21:19;67002.03;;;14.49;100.00
46614;BME280;32338;50.430;6.806;2023-07-31T00:23:46;67000.91;;;14.48;100.00
46614;BME280;32338;50.430;6.806;2023-07-31T00:26:12;66998.28;;;14.48;100.00
46614;BME280;32338;50.430;6.806;2023-07-31T00:28:40;67004.13;;;14.49;100.00
46614;BME280;32338;50.430;6.806;2023-07-31T00:31:07;67003.19;;;14.50;100.00
46614;BME280;32338;50.430;6.806;2023-07-31T00:33:34;67007.50;;;14.52;100.00
46614;BME280;32338;50.430;6.806;2023-07-31T00:36:01;67005.44;;;14.52;100.00
46614;BME280;32338;50.430;6.806;2023-07-31T00:38:28;67010.16;;;14.59;100.00
46614;BME280;32338;50.430;6.806;2023-07-31T00:40:54;67004.31;;;14.58;100.00
46614;BME280;32338;50.430;6.806;2023-07-31T00:43:21;67006.97;;;14.58;100.00
46614;BME280;32338;50.430;6.806;2023-07-31T00:45:49;67020.72;;;14.66;100.00
46614;BME280;32338;50.430;6.806;2023-07-31T00:48:16;67018.09;;;14.66;100.00
46614;BME280;32338;50.430;6.806;2023-07-31T00:50:42;67028.63;;;14.73;100.00
46614;BME280;32338;50.430;6.806;2023-07-31T00:53:09;67023.38;;;14.66;100.00
46614;BME280;32338;50.430;6.806;2023-07-31T00:55:35;67021.88;;;14.67;100.00
46614;BME280;32338;50.430;6.806;2023-07-31T00:58:02;67026.94;;;14.72;100.00
46614;BME280;32338;50.430;6.806;2023-07-31T01:00:28;67018.28;;;14.69;100.00
46614;BME280;32338;50.430;6.806;2023-07-31T01:02:56;67028.44;;;14.71;100.00
46614;BME280;32338;50.430;6.806;2023-07-31T01:05:26;67035.81;;;14.78;100.00
46614;BME280;32338;50.430;6.806;2023-07-31T01:07:59;67028.06;;;14.73;100.00
46614;BME280;32338;50.430;6.806;2023-07-31T01:10:32;67027.88;;;14.78;100.00
46614;BME280;32338;50.430;6.806;2023-07-31T01:13:02;67043.16;;;14.84;100.00
46614;BME280;32338;50.430;6.806;2023-07-31T01:15:29;67037.88;;;14.84;100.00
46614;BME280;32338;50.430;6.806;2023-07-31T01:17:57;67042.03;;;14.83;100.00
46614;BME280;32338;50.430;6.806;2023-07-31T01:20:26;67040.88;;;14.82;100.00
46614;BME280;32338;50.430;6.806;2023-07-31T01:23:11;67036.56;;;14.81;100.00
46614;BME280;32338;50.430;6.806;2023-07-31T01:25:54;67038.81;;;14.83;100.00
46614;BME280;32338;50.430;6.806;2023-07-31T01:28:26;67036.75;;;14.83;100.00
46614;BME280;32338;50.430;6.806;2023-07-31T01:30:55;67045.22;;;14.91;100.00
46614;BME280;32338;50.430;6.806;2023-07-31T01:33:24;67042.19;;;14.86;100.00
46614;BME280;32338;50.430;6.806;2023-07-31T01:35:52;67035.03;;;14.82;100.00
46614;BME280;32338;50.430;6.806;2023-07-31T01:38:20;67028.63;;;14.73;100.00
46614;BME280;32338;50.430;6.806;2023-07-31T01:40:52;67025.06;;;14.68;100.00
46614;BME280;32338;50.430;6.806;2023-07-31T01:43:19;67036.38;;;14.78;100.00
46614;BME280;32338;50.430;6.806;2023-07-31T01:45:46;67029.03;;;14.71;100.00
46614;BME280;32338;50.430;6.806;2023-07-31T01:48:13;67023.75;;;14.71;100.00
46614;BME280;32338;50.430;6.806;2023-07-31T01:50:39;67018.66;;;14.67;100.00
46614;BME280;32338;50.430;6.806;2023-07-31T01:53:06;67026.75;;;14.69;100.00
46614;BME280;32338;50.430;6.806;2023-07-31T01:55:32;67019.03;;;14.65;100.00
46614;BME280;32338;50.430;6.806;2023-07-31T01:58:00;67018.66;;;14.67;100.00
46614;BME280;32338;50.430;6.806;2023-07-31T02:00:27;67022.59;;;14.70;100.00
46614;BME280;32338;50.430;6.806;2023-07-31T02:02:53;67016.19;;;14.69;100.00
46614;BME280;32338;50.430;6.806;2023-07-31T02:05:20;67012.25;;;14.66;100.00
46614;BME280;32338;50.430;6.806;2023-07-31T02:07:46;67021.28;;;14.67;100.00
46614;BME280;32338;50.430;6.806;2023-07-31T02:10:13;67031.47;;;14.76;100.00
46614;BME280;32338;50.430;6.806;2023-07-31T02:12:40;67028.06;;;14.73;100.00
46614;BME280;32338;50.430;6.806;2023-07-31T02:15:08;67033.72;;;14.78;100.00
46614;BME280;32338;50.430;6.806;2023-07-31T02:17:35;67037.69;;;14.82;100.00
46614;BME280;32338;50.430;6.806;2023-07-31T02:20:02;67035.41;;;14.80;100.00
46614;BME280;32338;50.430;6.806;2023-07-31T02:22:29;67033.72;;;14.78;100.00
46614;BME280;32338;50.430;6.806;2023-07-31T02:24:55;67025.81;;;14.78;100.00
46614;BME280;32338;50.430;6.806;2023-07-31T02:27:22;67032.03;;;14.77;100.00
46614;BME280;32338;50.430;6.806;2023-07-31T02:29:52;67032.59;;;14.77;100.00
46614;BME280;32338;50.430;6.806;2023-07-31T02:32:20;67031.47;;;14.83;100.00
46614;BME280;32338;50.430;6.806;2023-07-31T02:34:46;67038.25;;;14.82;100.00
46614;BME280;32338;50.430;6.806;2023-07-31T02:37:13;67035.59;;;14.82;100.00
46614;BME280;32338;50.430;6.806;2023-07-31T02:39:40;67032.22;;;14.79;100.00
46614;BME280;32338;50.430;6.806;2023-07-31T02:42:06;67036.56;;;14.81;100.00
46614;BME280;32338;50.430;6.806;2023-07-31T02:44:33;67034.31;;;14.79;100.00
46614;BME280;32338;50.430;6.806;2023-07-31T02:46:59;67056.16;;;14.96;100.00
46614;BME280;32338;50.430;6.806;2023-07-31T02:49:27;67044.47;;;14.88;100.00
46614;BME280;32338;50.430;6.806;2023-07-31T02:51:54;67047.66;;;14.88;100.00
46614;BME280;32338;50.430;6.806;2023-07-31T02:54:20;67038.81;;;14.83;100.00
46614;BME280;32338;50.430;6.806;2023-07-31T02:56:47;67043.34;;;14.87;100.00
46614;BME280;32338;50.430;6.806;2023-07-31T02:59:14;67043.16;;;14.84;100.00
46614;BME280;32338;50.430;6.806;2023-07-31T03:01:41;67038.63;;;14.80;100.00
46614;BME280;32338;50.430;6.806;2023-07-31T03:04:07;67033.72;;;14.78;100.00
46614;BME280;32338;50.430;6.806;2023-07-31T03:06:35;67035.41;;;14.80;100.00
46614;BME280;32338;50.430;6.806;2023-07-31T03:09:02;67036.56;;;14.81;100.00
46614;BME280;32338;50.430;6.806;2023-07-31T03:11:28;67035.41;;;14.80;100.00
46614;BME280;32338;50.430;6.806;2023-07-31T03:13:55;67032.41;;;14.82;100.00
46614;BME280;32338;50.430;6.806;2023-07-31T03:16:21;67031.09;;;14.78;100.00
46614;BME280;32338;50.430;6.806;2023-07-31T03:18:48;67039.00;;;14.85;100.00
46614;BME280;32338;50.430;6.806;2023-07-31T03:21:14;67033.34;;;14.80;100.00
46614;BME280;32338;50.430;6.806;2023-07-31T03:23:42;67035.03;;;14.82;100.00
46614;BME280;32338;50.430;6.806;2023-07-31T03:26:09;67053.91;;;14.94;100.00
46614;BME280;32338;50.430;6.806;2023-07-31T03:28:36;67038.06;;;14.87;100.00
46614;BME280;32338;50.430;6.806;2023-07-31T03:31:02;67047.31;;;14.90;100.00
46614;BME280;32338;50.430;6.806;2023-07-31T03:33:29;67042.03;;;14.83;100.00
46614;BME280;32338;50.430;6.806;2023-07-31T03:35:55;67034.84;;;14.79;100.00
46614;BME280;32338;50.430;6.806;2023-07-31T03:38:22;67032.03;;;14.77;100.00
46614;BME280;32338;50.430;6.806;2023-07-31T03:40:50;67030.34;;;14.75;100.00
46614;BME280;32338;50.430;6.806;2023-07-31T03:43:16;67025.81;;;14.71;100.00
46614;BME280;32338;50.430;6.806;2023-07-31T03:45:43;67029.56;;;14.72;100.00
46614;BME280;32338;50.430;6.806;2023-07-31T03:48:10;67032.59;;;14.77;100.00
46614;BME280;32338;50.430;6.806;2023-07-31T03:50:36;67026.38;;;14.71;100.00
46614;BME280;32338;50.430;6.806;2023-07-31T03:53:03;67029.22;;;14.74;100.00
46614;BME280;32338;50.430;6.806;2023-07-31T03:55:29;67028.63;;;14.73;100.00
46614;BME280;32338;50.430;6.806;2023-07-31T03:57:57;67028.25;;;14.68;100.00
46614;BME280;32338;50.430;6.806;2023-07-31T04:00:25;67031.84;;;14.74;100.00
46614;BME280;32338;50.430;6.806;2023-07-31T04:02:52;67027.13;;;14.74;100.00
46614;BME280;32338;50.430;6.806;2023-07-31T04:05:19;67021.88;;;14.67;100.00
46614;BME280;32338;50.430;6.806;2023-07-31T04:07:45;67019.03;;;14.65;100.00
46614;BME280;32338;50.430;6.806;2023-07-31T04:10:12;67018.81;;;14.62;100.00
46614;BME280;32338;50.430;6.806;2023-07-31T04:12:39;67009.97;;;14.56;100.00
46614;BME280;32338;50.430;6.806;2023-07-31T04:15:07;67011.09;;;14.57;100.00
46614;BME280;32338;50.430;6.806;2023-07-31T04:17:34;67011.47;;;14.55;100.00
46614;BME280;32338;50.430;6.806;2023-07-31T04:20:00;67006.56;;;14.53;100.00
46614;BME280;32338;50.430;6.806;2023-07-31T04:22:27;67007.88;;;14.57;100.00
46614;BME280;32338;50.430;6.806;2023-07-31T04:24:54;67008.66;;;14.60;100.00
46614;BME280;32338;50.430;6.806;2023-07-31T04:27:20;67015.63;;;14.62;100.00
46614;BME280;32338;50.430;6.806;2023-07-31T04:29:47;67022.78;;;14.66;100.00
46614;BME280;32338;50.430;6.806;2023-07-31T04:32:15;67014.47;;;14.60;100.00
46614;BME280;32338;50.430;6.806;2023-07-31T04:34:42;67009.38;;;14.56;100.00
46614;BME280;32338;50.430;6.806;2023-07-31T04:37:08;67014.47;;;14.60;100.00
46614;BME280;32338;50.430;6.806;2023-07-31T04:39:35;67019.03;;;14.65;100.00
46614;BME280;32338;50.430;6.806;2023-07-31T04:42:02;67024.50;;;14.67;100.00
46614;BME280;32338;50.430;6.806;2023-07-31T04:44:28;67017.50;;;14.58;100.00
46614;BME280;32338;50.430;6.806;2023-07-31T04:46:55;67015.06;;;14.61;100.00
46614;BME280;32338;50.430;6.806;2023-07-31T04:49:23;67012.97;;;14.62;100.00
46614;BME280;32338;50.430;6.806;2023-07-31T04:51:49;67018.09;;;14.66;100.00
46614;BME280;32338;50.430;6.806;2023-07-31T04:54:16;67018.44;;;14.64;100.00
46614;BME280;32338;50.430;6.806;2023-07-31T04:56:42;67029.97;;;14.70;100.00
46614;BME280;32338;50.430;6.806;2023-07-31T04:59:09;67017.50;;;14.66;100.00
46614;BME280;32338;50.430;6.806;2023-07-31T05:01:36;67026.56;;;14.74;100.00
46614;BME280;32338;50.430;6.806;2023-07-31T05:04:02;67021.88;;;14.67;100.00
46614;BME280;32338;50.430;6.806;2023-07-31T05:06:30;67023.94;;;14.67;100.00
46614;BME280;32338;50.430;6.806;2023-07-31T05:08:57;67014.13;;;14.63;100.00
46614;BME280;32338;50.430;6.806;2023-07-31T05:11:24;67026.94;;;14.72;100.00
46614;BME280;32338;50.430;6.806;2023-07-31T05:13:50;67032.03;;;14.77;100.00
46614;BME280;32338;50.430;6.806;2023-07-31T05:16:17;67033.16;;;14.78;100.00
46614;BME280;32338;50.430;6.806;2023-07-31T05:18:43;67033.34;;;14.80;100.00
46614;BME280;32338;50.430;6.806;2023-07-31T05:21:10;67033.34;;;14.80;100.00
46614;BME280;32338;50.430;6.806;2023-07-31T05:23:37;67031.66;;;14.79;100.00
46614;BME280;32338;50.430;6.806;2023-07-31T05:26:04;67037.69;;;14.82;100.00
46614;BME280;32338;50.430;6.806;2023-07-31T05:28:31;67037.69;;;14.82;100.00
46614;BME280;32338;50.430;6.806;2023-07-31T05:30:59;67040.69;;;14.87;100.00
46614;BME280;32338;50.430;6.806;2023-07-31T05:33:26;67038.06;;;14.80;100.00
46614;BME280;32338;50.430;6.806;2023-07-31T05:35:52;67032.59;;;14.77;100.00
46614;BME280;32338;50.430;6.806;2023-07-31T05:38:19;67032.59;;;14.77;100.00
46614;BME280;32338;50.430;6.806;2023-07-31T05:40:47;67029.22;;;14.74;100.00
46614;BME280;32338;50.430;6.806;2023-07-31T05:43:14;67034.84;;;14.79;100.00
46614;BME280;32338;50.430;6.806;2023-07-31T05:45:41;67030.72;;;14.80;100.00
46614;BME280;32338;50.430;6.806;2023-07-31T05:48:08;67042.78;;;14.86;100.00
46614;BME280;32338;50.430;6.806;2023-07-31T05:50:35;67037.69;;;14.82;100.00
46614;BME280;32338;50.430;6.806;2023-07-31T05:53:02;67044.09;;;14.90;100.00
46614;BME280;32338;50.430;6.806;2023-07-31T05:55:29;67043.91;;;14.87;100.00
46614;BME280;32338;50.430;6.806;2023-07-31T05:57:57;67042.59;;;14.84;100.00
46614;BME280;32338;50.430;6.806;2023-07-31T06:00:23;67036.19;;;14.83;100.00
46614;BME280;32338;50.430;6.806;2023-07-31T06:02:50;67030.34;;;14.75;100.00
46614;BME280;32338;50.430;6.806;2023-07-31T06:05:16;67032.22;;;14.72;100.00
46614;BME280;32338;50.430;6.806;2023-07-31T06:07:43;67030.34;;;14.75;100.00
46614;BME280;32338;50.430;6.806;2023-07-31T06:10:09;67036.38;;;14.78;100.00
46614;BME280;32338;50.430;6.806;2023-07-31T06:12:36;67029.75;;;14.74;100.00
46614;BME280;32338;50.430;6.806;2023-07-31T06:15:05;67030.34;;;14.75;100.00
46614;BME280;32338;50.430;6.806;2023-07-31T06:17:32;67032.22;;;14.79;100.00
46614;BME280;32338;50.430;6.806;2023-07-31T06:19:58;67036.56;;;14.81;100.00
46614;BME280;32338;50.430;6.806;2023-07-31T06:22:25;67039.38;;;14.83;100.00
46614;BME280;32338;50.430;6.806;2023-07-31T06:24:51;67043.16;;;14.84;100.00
46614;BME280;32338;50.430;6.806;2023-07-31T06:27:18;67039.00;;;14.85;100.00
46614;BME280;32338;50.430;6.806;2023-07-31T06:29:44;67039.56;;;14.86;100.00
46614;BME280;32338;50.430;6.806;2023-07-31T06:32:12;67037.13;;;14.81;100.00
46614;BME280;32338;50.430;6.806;2023-07-31T06:34:39;67041.66;;;14.85;100.00
46614;BME280;32338;50.430;6.806;2023-07-31T06:37:06;67045.41;;;14.86;100.00
46614;BME280;32338;50.430;6.806;2023-07-31T06:39:32;67051.81;;;14.95;100.00
46614;BME280;32338;50.430;6.806;2023-07-31T06:41:59;67057.50;;;15.00;100.00
46614;BME280;32338;50.430;6.806;2023-07-31T06:44:25;67053.31;;;15.01;100.00
46614;BME280;32338;50.430;6.806;2023-07-31T06:46:52;67061.44;;;15.03;100.00
46614;BME280;32338;50.430;6.806;2023-07-31T06:49:20;67065.59;;;15.10;100.00
46614;BME280;32338;50.430;6.806;2023-07-31T06:51:46;67062.75;;;15.07;100.00
46614;BME280;32338;50.430;6.806;2023-07-31T06:54:13;67069.53;;;15.13;100.00
46614;BME280;32338;50.430;6.806;2023-07-31T06:56:39;67073.50;;;15.17;100.00
46614;BME280;32338;50.430;6.806;2023-07-31T06:59:06;67084.06;;;15.24;100.00
46614;BME280;32338;50.430;6.806;2023-07-31T07:01:33;67100.47;;;15.39;100.00
46614;BME280;32338;50.430;6.806;2023-07-31T07:03:59;67095.97;;;15.35;100.00
46614;BME280;32338;50.430;6.806;2023-07-31T07:06:27;67096.69;;;15.38;100.00
46614;BME280;32338;50.430;6.806;2023-07-31T07:08:54;67098.78;;;15.37;100.00
46614;BME280;32338;50.430;6.806;2023-07-31T07:11:20;67113.47;;;15.51;100.00
46614;BME280;32338;50.430;6.806;2023-07-31T07:13:47;67118.22;;;15.57;100.00
46614;BME280;32338;50.430;6.806;2023-07-31T07:16:14;67123.69;;;15.60;100.00
46614;BME280;32338;50.430;6.806;2023-07-31T07:18:41;67123.09;;;15.60;100.00
46614;BME280;32338;50.430;6.806;2023-07-31T07:21:07;67121.41;;;15.58;100.00
46614;BME280;32338;50.430;6.806;2023-07-31T07:23:35;67110.66;;;15.48;100.00
46614;BME280;32338;50.430;6.806;2023-07-31T07:26:02;67104.44;;;15.43;100.00
46614;BME280;32338;50.430;6.806;2023-07-31T07:28:28;67099.16;;;15.43;100.00
46614;BME280;32338;50.430;6.806;2023-07-31T07:30:55;67101.22;;;15.42;100.00
46614;BME280;32338;50.430;6.806;2023-07-31T07:33:22;67098.38;;;15.39;100.00
46614;BME280;32338;50.430;6.806;2023-07-31T07:35:49;67099.34;;;15.38;100.00
46614;BME280;32338;50.430;6.806;2023-07-31T07:38:15;67107.81;;;15.46;100.00
46614;BME280;32338;50.430;6.806;2023-07-31T07:40:45;67108.97;;;15.47;100.00
46614;BME280;32338;50.430;6.806;2023-07-31T07:43:15;67101.63;;;15.40;100.00
46614;BME280;32338;50.430;6.806;2023-07-31T07:45:42;67097.06;;;15.36;100.00
46614;BME280;32338;50.430;6.806;2023-07-31T07:48:08;67094.81;;;15.34;100.00
46614;BME280;32338;50.430;6.806;2023-07-31T07:50:35;67104.44;;;15.43;100.00
46614;BME280;32338;50.430;6.806;2023-07-31T07:53:02;67098.56;;;15.42;100.00
46614;BME280;32338;50.430;6.806;2023-07-31T07:55:28;67117.84;;;15.52;100.00
46614;BME280;32338;50.430;6.806;2023-07-31T07:57:56;67116.88;;;15.54;100.00
46614;BME280;32338;50.430;6.806;2023-07-31T08:00:23;67110.47;;;15.46;100.00
46614;BME280;32338;50.430;6.806;2023-07-31T08:02:49;67103.50;;;15.44;100.00
46614;BME280;32338;50.430;6.806;2023-07-31T08:05:16;67106.31;;;15.47;100.00
46614;BME280;32338;50.430;6.806;2023-07-31T08:07:43;67120.09;;;15.62;100.00
46614;BME280;32338;50.430;6.806;2023-07-31T08:10:09;67142.16;;;15.75;100.00
46614;BME280;32338;50.430;6.806;2023-07-31T08:12:36;67160.84;;;15.92;100.00
46614;BME280;32338;50.430;6.806;2023-07-31T08:15:05;67142.72;;;15.82;100.00
46614;BME280;32338;50.430;6.806;2023-07-31T08:17:32;67144.81;;;15.82;100.00
46614;BME280;32338;50.430;6.806;2023-07-31T08:19:58;67145.38;;;15.82;100.00
46614;BME280;32338;50.430;6.806;2023-07-31T08:22:25;67138.94;;;15.74;100.00
46614;BME280;32338;50.430;6.806;2023-07-31T08:24:52;67142.53;;;15.80;100.00
46614;BME280;32338;50.430;6.806;2023-07-31T08:27:18;67142.34;;;15.77;100.00
46614;BME280;32338;50.430;6.806;2023-07-31T08:29:45;67146.69;;;15.79;100.00
46614;BME280;32338;50.430;6.806;2023-07-31T08:32:13;67154.81;;;15.88;100.00
46614;BME280;32338;50.430;6.806;2023-07-31T08:34:39;67157.63;;;15.91;100.00
46614;BME280;32338;50.430;6.806;2023-07-31T08:37:07;67154.06;;;15.93;100.00
46614;BME280;32338;50.430;6.806;2023-07-31T08:39:33;67152.16;;;15.88;100.00
46614;BME280;32338;50.430;6.806;2023-07-31T08:42:00;67147.66;;;15.84;100.00
46614;BME280;32338;50.430;6.806;2023-07-31T08:44:27;67152.38;;;15.84;100.00
46614;BME280;32338;50.430;6.806;2023-07-31T08:46:53;67168.78;;;15.99;100.00
46614;BME280;32338;50.430;6.806;2023-07-31T08:49:23;67175.00;;;16.04;100.00
46614;BME280;32338;50.430;6.806;2023-07-31T08:51:50;67177.28;;;16.07;100.00
46614;BME280;32338;50.430;6.806;2023-07-31T08:54:16;67174.06;;;16.06;100.00
46614;BME280;32338;50.430;6.806;2023-07-31T08:56:44;67170.28;;;16.05;100.00
46614;BME280;32338;50.430;6.806;2023-07-31T08:59:11;67184.81;;;16.16;100.00
46614;BME280;32338;50.430;6.806;2023-07-31T09:01:46;67179.53;;;16.16;100.00
46614;BME280;32338;50.430;6.806;2023-07-31T09:04:16;67190.09;;;16.23;100.00
46614;BME280;32338;50.430;6.806;2023-07-31T09:06:47;67199.34;;;16.27;100.00
46614;BME280;32338;50.430;6.806;2023-07-31T09:09:14;67206.88;;;16.36;100.00
46614;BME280;32338;50.430;6.806;2023-07-31T09:11:40;67195.19;;;16.28;100.00
46614;BME280;32338;50.430;6.806;2023-07-31T09:14:08;67191.22;;;16.24;100.00
46614;BME280;32338;50.430;6.806;2023-07-31T09:16:35;67197.44;;;16.30;100.00
46614;BME280;32338;50.430;6.806;2023-07-31T09:19:01;67205.38;;;16.37;100.00
46614;BME280;32338;50.430;6.806;2023-07-31T09:21:29;67216.69;;;16.47;100.00
46614;BME280;32338;50.430;6.806;2023-07-31T09:23:58;67226.16;;;16.53;100.00
46614;BME280;32338;50.430;6.806;2023-07-31T09:26:31;67231.44;;;16.61;100.00
46614;BME280;32338;50.430;6.806;2023-07-31T09:28:58;67221.97;;;16.54;100.00
46614;BME280;32338;50.430;6.806;2023-07-31T09:31:32;67232.75;;;16.57;100.00
46614;BME280;32338;50.430;6.806;2023-07-31T09:33:59;67258.81;;;16.81;100.00
46614;BME280;32338;50.430;6.806;2023-07-31T09:36:29;67266.38;;;16.90;100.00
46614;BME280;32338;50.430;6.806;2023-07-31T09:39:01;67277.13;;;17.00;100.00
46614;BME280;32338;50.430;6.806;2023-07-31T09:41:28;67305.47;;;17.26;100.00
46614;BME280;32338;50.430;6.806;2023-07-31T09:43:55;67329.09;;;17.45;100.00
46614;BME280;32338;50.430;6.806;2023-07-31T09:46:21;67330.22;;;17.46;100.00
46614;BME280;32338;50.430;6.806;2023-07-31T09:48:48;67330.59;;;17.51;100.00
46614;BME280;32338;50.430;6.806;2023-07-31T09:51:15;67329.25;;;17.47;100.00
46614;BME280;32338;50.430;6.806;2023-07-31T09:53:50;67318.13;;;17.40;100.00
46614;BME280;32338;50.430;6.806;2023-07-31T09:56:19;67304.34;;;17.25;100.00
46614;BME280;32338;50.430;6.806;2023-07-31T09:58:47;67302.47;;;17.21;100.00
46614;BME280;32338;50.430;6.806;2023-07-31T10:01:14;67298.66;;;17.20;100.00
46614;BME280;32338;50.430;6.806;2023-07-31T10:03:42;67290.53;;;17.17;100.00
46614;BME280;32338;50.430;6.806;2023-07-31T10:06:12;67313.00;;;17.35;100.00
46614;BME280;32338;50.430;6.806;2023-07-31T10:08:43;67299.22;;;17.20;100.00
46614;BME280;32338;50.430;6.806;2023-07-31T10:11:12;67311.91;;;17.34;100.00
46614;BME280;32338;50.430;6.806;2023-07-31T10:13:41;67314.31;;;17.39;100.00
46614;BME280;32338;50.430;6.806;2023-07-31T10:16:09;67322.66;;;17.44;100.00
46614;BME280;32338;50.430;6.806;2023-07-31T10:18:37;67327.94;;;17.44;100.00
46614;BME280;32338;50.430;6.806;2023-07-31T10:21:04;67325.47;;;17.46;100.00
46614;BME280;32338;50.430;6.806;2023-07-31T10:23:32;67311.13;;;17.31;100.00
46614;BME280;32338;50.430;6.806;2023-07-31T10:26:00;67294.88;;;17.18;100.00
46614;BME280;32338;50.430;6.806;2023-07-31T10:28:28;67298.28;;;17.22;100.00
46614;BME280;32338;50.430;6.806;2023-07-31T10:30:57;67292.44;;;17.14;100.00
46614;BME280;32338;50.430;6.806;2023-07-31T10:33:24;67293.38;;;17.12;100.00
46614;BME280;32338;50.430;6.806;2023-07-31T10:36:14;67291.50;;;17.15;100.00
46614;BME280;32338;50.430;6.806;2023-07-31T10:38:41;67288.66;;;17.13;100.00
46614;BME280;32338;50.430;6.806;2023-07-31T10:41:09;67284.69;;;17.09;100.00
46614;BME280;32338;50.430;6.806;2023-07-31T10:43:36;67287.72;;;17.14;100.00
46614;BME280;32338;50.430;6.806;2023-07-31T10:46:08;67305.47;;;17.26;100.00
46614;BME280;32338;50.430;6.806;2023-07-31T10:48:35;67302.09;;;17.23;100.00
46614;BME280;32338;50.430;6.806;2023-07-31T10:51:07;67291.50;;;17.15;100.00
46614;BME280;32338;50.430;6.806;2023-07-31T10:53:35;67273.56;;;17.01;100.00
46614;BME280;32338;50.430;6.806;2023-07-31T10:56:02;67291.50;;;17.15;100.00
46614;BME280;32338;50.430;6.806;2023-07-31T10:58:30;67320.59;;;17.37;100.00
46614;BME280;32338;50.430;6.806;2023-07-31T11:00:58;67313.97;;;17.33;100.00
46614;BME280;32338;50.430;6.806;2023-07-31T11:03:29;67314.72;;;17.37;100.00
46614;BME280;32338;50.430;6.806;2023-07-31T11:06:06;67314.53;;;17.34;100.00
46614;BME280;32338;50.430;6.806;2023-07-31T11:08:34;67314.91;;;17.32;100.00
46614;BME280;32338;50.430;6.806;2023-07-31T11:11:05;67292.63;;;17.16;100.00
46614;BME280;32338;50.430;6.806;2023-07-31T11:13:33;67281.88;;;17.07;100.00
46614;BME280;32338;50.430;6.806;2023-07-31T11:16:00;67267.13;;;16.93;100.00
46614;BME280;32338;50.430;6.806;2023-07-31T11:18:28;67248.03;;;16.71;100.00
46614;BME280;32338;50.430;6.806;2023-07-31T11:20:55;67230.69;;;16.58;100.00
46614;BME280;32338;50.430;6.806;2023-07-31T11:23:22;67228.59;;;16.58;100.00
46614;BME280;32338;50.430;6.806;2023-07-31T11:25:50;67260.31;;;16.87;100.00
46614;BME280;32338;50.430;6.806;2023-07-31T11:28:18;67285.25;;;17.10;100.00
46614;BME280;32338;50.430;6.806;2023-07-31T11:30:45;67300.38;;;17.21;100.00
46614;BME280;32338;50.430;6.806;2023-07-31T11:33:13;67293.00;;;17.14;100.00
46614;BME280;32338;50.430;6.806;2023-07-31T11:35:43;67264.84;;;16.91;100.00
46614;BME280;32338;50.430;6.806;2023-07-31T11:38:11;67265.22;;;16.89;100.00
46614;BME280;32338;50.430;6.806;2023-07-31T11:40:41;67257.47;;;16.84;100.00
46614;BME280;32338;50.430;6.806;2023-07-31T11:43:08;67289.03;;;17.11;100.00
46614;BME280;32338;50.430;6.806;2023-07-31T11:45:35;67308.66;;;17.33;100.00
46614;BME280;32338;50.430;6.806;2023-07-31T11:48:01;67319.63;;;17.39;100.00
46614;BME280;32338;50.430;6.806;2023-07-31T11:50:28;67329.25;;;17.47;100.00
46614;BME280;32338;50.430;6.806;2023-07-31T11:52:59;67327.75;;;17.48;100.00
46614;BME280;32338;50.430;6.806;2023-07-31T11:55:27;67334.56;;;17.55;100.00
46614;BME280;32338;50.430;6.806;2023-07-31T11:57:56;67324.91;;;17.46;100.00
46614;BME280;32338;50.430;6.806;2023-07-31T12:00:23;67337.97;;;17.58;100.00
46614;BME280;32338;50.430;6.806;2023-07-31T12:02:51;67360.25;;;17.73;100.00
46614;BME280;32338;50.430;6.806;2023-07-31T12:05:18;67343.03;;;17.62;100.00
46614;BME280;32338;50.430;6.806;2023-07-31T12:07:46;67344.19;;;17.63;100.00
46614;BME280;32338;50.430;6.806;2023-07-31T12:10:24;67353.81;;;17.72;100.00
46614;BME280;32338;50.430;6.806;2023-07-31T12:13:02;67366.69;;;17.81;100.00
46614;BME280;32338;50.430;6.806;2023-07-31T12:15:32;67369.69;;;17.87;100.00
46614;BME280;32338;50.430;6.806;2023-07-31T12:17:59;67371.97;;;17.89;100.00
46614;BME280;32338;50.430;6.806;2023-07-31T12:20:26;67373.09;;;17.90;100.00
46614;BME280;32338;50.430;6.806;2023-07-31T12:22:56;67372.91;;;17.87;100.00
46614;BME280;32338;50.430;6.806;2023-07-31T12:25:28;67369.34;;;17.81;100.00
46614;BME280;32338;50.430;6.806;2023-07-31T12:27:55;67367.25;;;17.82;100.00
46614;BME280;32338;50.430;6.806;2023-07-31T12:30:29;67364.03;;;17.81;100.00
46614;BME280;32338;50.430;6.806;2023-07-31T12:32:55;67332.84;;;17.53;100.00
46614;BME280;32338;50.430;6.806;2023-07-31T12:35:22;67324.56;;;17.41;100.00
46614;BME280;32338;50.430;6.806;2023-07-31T12:37:49;67313.22;;;17.30;100.00
46614;BME280;32338;50.430;6.806;2023-07-31T12:40:15;67308.47;;;17.31;100.00
46614;BME280;32338;50.430;6.806;2023-07-31T12:42:43;67297.34;;;17.23;100.00
46614;BME280;32338;50.430;6.806;2023-07-31T12:45:10;67298.13;;;17.19;100.00
46614;BME280;32338;50.430;6.806;2023-07-31T12:47:36;67279.97;;;17.02;100.00
46614;BME280;32338;50.430;6.806;2023-07-31T12:50:03;67260.88;;;16.88;100.00
46614;BME280;32338;50.430;6.806;2023-07-31T12:52:31;67237.47;;;16.64;100.00